Aptos, California
Current Conditions -  °F | °C
As of 4:53 PM on Tuesday 21 Oct 2014 (Local Time) from KWVI Reporting Station
Clear Clear  
Wind Chill: 72°   Ceiling: Unl
Heat Index: 72°   Visibility: 10mi
Dew Point: 49°   Wind: 0mph
Humidity: 44%   Direction: NA
Pressure: 30"   Gusts: NA
Location:  36.98°N, 121.89°W
Report Text: KWVI 212353Z AUTO 00000KT 10SM CLR 22/09 A3000 RMK AO2 SLP159 T02220094 10222 20189 56012
Loading
Personal Weather Stations






























Interactive Weather Map
Tropical Storm Tracking
New forecast layout! Learn more

10-Day Weather Forecast

Advertisements
Track Severe Weather on mobile